Time;durP1;ratioP1;P1;durP2;ratioP2;P2;SDS_P1;SDS_P2;PMS_P1;PMS_P2;Temp;Humidity;BMP_temperature;BMP_pressure;BME280_temperature;BME280_humidity;BME280_pressure;Samples;Min_cycle;Max_cycle;Signal;HPM_P1;HPM_P2
2024/01/22 00:00:03;;;;;;;17.10;8.40;;;;;;;-0.17;71.32;101265.81;105464;1254;71673;-50
2024/01/22 00:03:00;;;;;;;17.60;8.40;;;;;;;-0.14;71.28;101262.61;105461;1255;83647;-54
2024/01/22 00:05:28;;;;;;;16.90;8.60;;;;;;;-0.13;71.37;101259.21;105567;1253;70309;-50
2024/01/22 00:07:56;;;;;;;18.90;9.80;;;;;;;-0.12;71.33;101258.54;105456;1265;70407;-50
2024/01/22 00:10:25;;;;;;;17.60;8.80;;;;;;;-0.10;71.20;101252.23;105475;1257;69828;-52
2024/01/22 00:12:53;;;;;;;15.30;9.10;;;;;;;-0.09;71.31;101242.45;105626;1255;74886;-51
2024/01/22 00:15:21;;;;;;;16.40;8.60;;;;;;;-0.07;71.16;101235.79;105520;1256;82729;-50
2024/01/22 00:17:50;;;;;;;16.90;8.70;;;;;;;-0.06;71.15;101235.64;105576;1255;72164;-49
2024/01/22 00:20:18;;;;;;;17.80;8.40;;;;;;;-0.05;71.13;101233.10;105543;1255;69922;-50
2024/01/22 00:22:46;;;;;;;17.30;8.50;;;;;;;-0.03;71.19;101238.77;105510;1255;70004;-51
2024/01/22 00:25:15;;;;;;;15.30;8.80;;;;;;;-0.02;71.25;101232.80;105483;1257;73244;-51
2024/01/22 00:27:43;;;;;;;16.10;8.40;;;;;;;-0.02;71.21;101234.52;105489;1255;82744;-48
2024/01/22 00:30:12;;;;;;;17.60;8.70;;;;;;;-0.01;71.12;101235.23;105488;1253;70894;-49
2024/01/22 00:32:40;;;;;;;17.10;9.10;;;;;;;-0.01;71.12;101233.66;105623;1254;70267;-49
2024/01/22 00:35:09;;;;;;;16.70;8.80;;;;;;;-0.02;71.06;101230.39;105480;1256;69986;-49
2024/01/22 00:37:37;;;;;;;21.80;9.00;;;;;;;-0.04;71.06;101220.89;105578;1255;71301;-49
2024/01/22 00:40:09;;;;;;;17.10;9.60;;;;;;;-0.06;71.12;101221.19;105479;1256;81353;-50
2024/01/22 00:42:37;;;;;;;17.20;9.40;;;;;;;-0.10;71.04;101221.98;105514;1254;73777;-51
2024/01/22 00:45:06;;;;;;;19.80;9.80;;;;;;;-0.14;71.03;101226.20;105491;1257;69979;-51
2024/01/22 00:47:34;;;;;;;20.20;9.70;;;;;;;-0.17;71.04;101219.61;105517;1254;69872;-49
2024/01/22 00:50:03;;;;;;;17.20;9.20;;;;;;;-0.20;71.16;101222.66;105522;1255;72561;-49
2024/01/22 00:52:31;;;;;;;16.80;9.00;;;;;;;-0.21;71.23;101222.45;105549;1256;81301;-49
2024/01/22 00:54:59;;;;;;;16.30;9.00;;;;;;;-0.24;71.25;101220.86;105583;1255;71915;-50
2024/01/22 00:57:28;;;;;;;15.10;8.00;;;;;;;-0.26;71.36;101224.92;105568;1256;70008;-49
2024/01/22 00:59:56;;;;;;;15.60;8.40;;;;;;;-0.26;71.51;101225.09;105596;1255;70076;-50
2024/01/22 01:02:25;;;;;;;14.40;7.70;;;;;;;-0.22;71.73;101225.02;105695;1258;72857;-50
2024/01/22 01:04:53;;;;;;;13.50;7.70;;;;;;;-0.19;71.75;101222.14;105558;1256;81175;-49
2024/01/22 01:07:21;;;;;;;14.30;8.10;;;;;;;-0.15;71.86;101220.52;105536;1255;71686;-49
2024/01/22 01:09:50;;;;;;;16.10;7.80;;;;;;;-0.10;72.04;101215.28;105494;1255;71345;-50
2024/01/22 01:12:19;;;;;;;14.10;7.50;;;;;;;-0.05;72.22;101209.89;105606;1257;69992;-49
2024/01/22 01:14:47;;;;;;;15.50;8.20;;;;;;;-0.00;72.20;101204.65;105553;1257;74221;-49
2024/01/22 01:17:15;;;;;;;13.80;7.70;;;;;;;0.04;72.22;101195.62;105525;1256;81267;-49
2024/01/22 01:19:43;;;;;;;14.50;7.30;;;;;;;0.09;72.33;101190.20;105500;1254;71625;-50
2024/01/22 01:22:13;;;;;;;12.70;8.00;;;;;;;0.14;72.33;101184.96;105613;1254;69983;-49
2024/01/22 01:24:41;;;;;;;16.20;8.40;;;;;;;0.17;72.27;101179.88;105594;1256;69972;-51
2024/01/22 01:27:09;;;;;;;12.60;7.40;;;;;;;0.20;72.34;101169.80;105571;1257;71717;-52
2024/01/22 01:29:38;;;;;;;14.50;7.50;;;;;;;0.22;72.38;101167.77;105598;1256;82802;-50
2024/01/22 01:32:07;;;;;;;15.10;8.20;;;;;;;0.24;72.29;101162.64;105629;1256;72036;-52
2024/01/22 01:34:35;;;;;;;17.20;8.20;;;;;;;0.26;72.44;101156.48;105627;1260;69898;-50
2024/01/22 01:37:03;;;;;;;14.10;7.60;;;;;;;0.27;72.21;101148.41;105513;1257;69938;-50
2024/01/22 01:39:32;;;;;;;17.10;8.70;;;;;;;0.27;72.30;101148.59;105568;1257;71793;-48
2024/01/22 01:42:00;;;;;;;13.90;8.00;;;;;;;0.28;72.31;101149.29;105464;1256;81504;-48
2024/01/22 01:44:51;;;;;;;14.50;7.70;;;;;;;0.27;72.53;101147.55;105477;1257;72414;-50
2024/01/22 01:47:20;;;;;;;12.90;7.40;;;;;;;0.27;72.45;101141.37;105513;1256;69992;-48
2024/01/22 01:49:48;;;;;;;13.10;7.70;;;;;;;0.28;72.60;101139.50;105514;1257;70015;-49
2024/01/22 01:52:17;;;;;;;11.90;7.30;;;;;;;0.28;72.50;101133.66;105529;1255;73415;-48
2024/01/22 01:54:45;;;;;;;14.20;7.40;;;;;;;0.28;72.66;101133.83;105558;1258;83160;-49
2024/01/22 01:57:13;;;;;;;11.10;7.40;;;;;;;0.27;72.47;101132.26;105559;1254;71803;-49
2024/01/22 01:59:43;;;;;;;14.10;8.00;;;;;;;0.27;72.51;101129.17;105481;1258;69923;-50
2024/01/22 02:02:12;;;;;;;13.60;7.40;;;;;;;0.28;72.65;101126.95;105567;1252;69980;-51
2024/01/22 02:04:41;;;;;;;13.70;7.90;;;;;;;0.28;72.56;101122.80;105525;1257;72005;-49
2024/01/22 02:07:09;;;;;;;16.40;7.90;;;;;;;0.27;72.56;101122.63;105495;1257;81502;-48
2024/01/22 02:09:50;;;;;;;11.30;6.70;;;;;;;0.25;72.53;101114.87;105586;1256;72869;-49
2024/01/22 02:12:19;;;;;;;12.70;7.10;;;;;;;0.22;72.48;101111.91;105553;1252;70060;-48
2024/01/22 02:14:48;;;;;;;12.90;7.00;;;;;;;0.19;72.53;101107.05;105490;1259;69955;-50
2024/01/22 02:17:16;;;;;;;12.60;6.80;;;;;;;0.17;72.43;101103.40;105577;1258;74142;-50
2024/01/22 02:19:45;;;;;;;10.60;6.60;;;;;;;0.13;72.46;101101.27;105534;1257;82079;-49
2024/01/22 02:22:14;;;;;;;10.30;6.40;;;;;;;0.10;72.54;101105.67;105592;1257;70634;-50
2024/01/22 02:24:42;;;;;;;9.60;5.70;;;;;;;0.07;72.50;101101.34;105619;1254;69957;-49
2024/01/22 02:27:10;;;;;;;15.50;6.80;;;;;;;0.05;72.63;101095.79;105494;1256;69955;-49
2024/01/22 02:29:38;;;;;;;11.50;6.60;;;;;;;0.04;72.67;101089.09;105546;1255;74007;-49
2024/01/22 02:32:07;;;;;;;10.90;6.50;;;;;;;0.05;72.68;101082.41;105562;1257;81358;-51
2024/01/22 02:34:37;;;;;;;11.70;6.20;;;;;;;0.09;72.66;101081.77;105592;1257;72575;-49
2024/01/22 02:37:05;;;;;;;10.10;6.60;;;;;;;0.12;72.76;101070.32;105535;1254;70008;-50
2024/01/22 02:39:35;;;;;;;12.90;7.20;;;;;;;0.15;72.70;101061.60;105619;1254;69909;-50
2024/01/22 02:42:04;;;;;;;12.00;6.70;;;;;;;0.19;72.45;101053.25;105536;1254;75350;-51
2024/01/22 02:44:35;;;;;;;16.50;7.50;;;;;;;0.22;72.51;101045.39;105542;1257;81614;-51
2024/01/22 02:47:04;;;;;;;10.40;6.80;;;;;;;0.24;72.46;101038.35;105580;1256;71664;-49
2024/01/22 02:49:34;;;;;;;14.20;7.00;;;;;;;0.26;72.28;101028.42;105623;1254;69859;-51
2024/01/22 02:52:03;;;;;;;12.40;6.30;;;;;;;0.25;72.14;101028.25;105534;1257;69980;-50
2024/01/22 02:54:32;;;;;;;11.00;5.90;;;;;;;0.24;72.02;101022.02;105558;1255;72788;-49
2024/01/22 02:57:00;;;;;;;13.00;5.80;;;;;;;0.18;71.94;101023.52;105567;1256;81477;-49
2024/01/22 02:59:28;;;;;;;10.20;6.00;;;;;;;0.15;71.87;101015.36;105565;1254;71739;-49
2024/01/22 03:01:56;;;;;;;10.20;6.30;;;;;;;0.09;71.70;101016.66;105584;1254;69918;-50
2024/01/22 03:04:25;;;;;;;11.80;6.20;;;;;;;0.06;71.80;101011.10;105544;1254;69905;-50
2024/01/22 03:06:53;;;;;;;10.20;5.50;;;;;;;0.01;71.73;101015.84;105637;1254;74277;-49
2024/01/22 03:09:22;;;;;;;9.50;5.40;;;;;;;0.00;71.84;101014.81;105537;1258;81737;-51
2024/01/22 03:11:50;;;;;;;10.90;5.40;;;;;;;0.03;71.88;101007.63;105587;1256;72092;-50
2024/01/22 03:14:18;;;;;;;9.80;5.40;;;;;;;0.06;71.93;100999.77;105492;1254;69893;-49
2024/01/22 03:16:46;;;;;;;10.50;5.40;;;;;;;0.10;71.81;100996.90;105471;1256;69963;-50
2024/01/22 03:19:14;;;;;;;10.00;5.10;;;;;;;0.12;71.79;100989.21;105504;1254;72060;-49
2024/01/22 03:21:43;;;;;;;9.10;4.80;;;;;;;0.15;71.81;100978.60;105604;1256;81849;-50
2024/01/22 03:24:12;;;;;;;11.40;5.00;;;;;;;0.20;71.66;100980.39;105628;1257;71690;-49
2024/01/22 03:26:41;;;;;;;7.90;4.50;;;;;;;0.22;71.54;100981.44;105616;1254;69975;-49
2024/01/22 03:29:09;;;;;;;8.70;4.80;;;;;;;0.25;71.44;100978.56;105570;1258;69968;-50
2024/01/22 03:31:37;;;;;;;7.60;4.50;;;;;;;0.30;71.38;100973.14;105535;1255;73294;-50
2024/01/22 03:34:06;;;;;;;6.90;4.00;;;;;;;0.34;71.36;100968.73;105496;1256;81468;-50
2024/01/22 03:36:35;;;;;;;9.10;4.20;;;;;;;0.37;71.19;100965.84;105550;1254;72021;-49
2024/01/22 03:39:04;;;;;;;9.00;4.20;;;;;;;0.39;71.10;100958.65;105573;1257;69993;-49
2024/01/22 03:41:33;;;;;;;8.30;4.60;;;;;;;0.42;71.06;100949.59;105555;1256;69946;-49
2024/01/22 03:44:02;;;;;;;8.10;4.40;;;;;;;0.43;70.92;100947.54;105593;1256;72913;-49
2024/01/22 03:46:31;;;;;;;8.40;4.60;;;;;;;0.43;70.80;100943.41;105523;1254;82819;-52
2024/01/22 03:48:59;;;;;;;8.40;4.40;;;;;;;0.46;70.82;100939.14;105531;1256;73086;-50
2024/01/22 03:51:27;;;;;;;8.20;4.20;;;;;;;0.48;70.62;100936.07;105583;1253;69925;-50
2024/01/22 03:53:56;;;;;;;7.50;4.70;;;;;;;0.53;70.64;100931.66;105516;1257;69923;-50
2024/01/22 03:56:24;;;;;;;7.40;3.70;;;;;;;0.55;70.58;100927.90;105531;1255;72593;-48
2024/01/22 03:58:53;;;;;;;7.90;4.10;;;;;;;0.54;70.15;100923.25;105558;1256;83435;-48
2024/01/22 04:01:21;;;;;;;8.70;4.30;;;;;;;0.53;70.16;100924.46;105547;1255;72348;-49
2024/01/22 04:03:50;;;;;;;8.60;4.30;;;;;;;0.52;70.23;100920.98;105535;1257;70350;-48
2024/01/22 04:06:19;;;;;;;8.50;4.50;;;;;;;0.51;70.01;100925.80;105616;1257;70011;-48
2024/01/22 04:08:47;;;;;;;7.60;4.40;;;;;;;0.49;70.13;100920.60;105584;1257;73481;-48
2024/01/22 04:11:17;;;;;;;10.30;4.90;;;;;;;0.49;69.94;100909.60;105615;1256;82842;-48
2024/01/22 04:13:45;;;;;;;11.10;4.40;;;;;;;0.49;70.02;100895.33;105549;1257;73932;-48
2024/01/22 04:16:14;;;;;;;8.40;4.10;;;;;;;0.45;69.74;100897.69;105531;1253;70002;-50
2024/01/22 04:18:43;;;;;;;9.40;5.20;;;;;;;0.40;69.87;100896.26;105563;1254;70445;-48
2024/01/22 04:21:12;;;;;;;8.60;4.90;;;;;;;0.37;69.67;100892.95;105584;1254;73278;-48
2024/01/22 04:23:40;;;;;;;10.10;4.70;;;;;;;0.35;69.59;100882.61;105533;1255;81589;-48
2024/01/22 04:26:08;;;;;;;7.60;4.50;;;;;;;0.33;69.70;100877.60;105566;1254;72794;-48
2024/01/22 04:28:37;;;;;;;8.20;4.40;;;;;;;0.31;69.62;100869.84;105605;1257;69974;-47
2024/01/22 04:31:06;;;;;;;8.20;4.30;;;;;;;0.29;69.66;100860.02;105525;1257;69964;-48
2024/01/22 04:33:35;;;;;;;6.40;4.20;;;;;;;0.28;69.70;100859.83;105589;1257;73569;-47
2024/01/22 04:36:04;;;;;;;8.60;4.40;;;;;;;0.26;69.74;100856.38;105565;1257;81521;-48
2024/01/22 04:38:32;;;;;;;8.40;4.20;;;;;;;0.26;69.71;100853.80;105625;1256;71827;-48
2024/01/22 04:41:00;;;;;;;7.70;4.40;;;;;;;0.27;69.76;100848.98;105598;1258;69881;-52
2024/01/22 04:43:28;;;;;;;7.40;4.20;;;;;;;0.29;69.62;100850.23;105621;1253;69970;-49
2024/01/22 04:45:56;;;;;;;6.60;4.20;;;;;;;0.31;69.72;100852.82;105546;1257;74151;-49
2024/01/22 04:48:25;;;;;;;10.20;4.40;;;;;;;0.31;69.69;100845.62;105505;1257;81921;-49
2024/01/22 04:50:53;;;;;;;7.50;4.10;;;;;;;0.32;69.66;100849.91;105508;1254;72003;-48
2024/01/22 04:53:22;;;;;;;7.10;4.30;;;;;;;0.34;69.77;100840.31;105582;1255;69941;-46
2024/01/22 04:55:50;;;;;;;7.00;4.40;;;;;;;0.36;69.72;100835.17;105477;1257;69956;-47
2024/01/22 04:58:18;;;;;;;6.60;4.10;;;;;;;0.39;69.76;100829.72;105482;1254;73067;-47
2024/01/22 05:00:46;;;;;;;8.40;4.50;;;;;;;0.42;69.84;100822.69;105513;1256;81368;-45
2024/01/22 05:03:15;;;;;;;8.10;4.10;;;;;;;0.45;69.74;100820.31;105501;1253;72900;-46
2024/01/22 05:05:43;;;;;;;6.70;3.60;;;;;;;0.48;69.85;100812.27;105514;1254;70006;-47
2024/01/22 05:08:12;;;;;;;9.30;4.70;;;;;;;0.52;69.77;100809.73;105458;1257;69983;-48
2024/01/22 05:10:40;;;;;;;14.00;6.50;;;;;;;0.56;69.86;100805.13;105497;1254;73512;-47
2024/01/22 05:13:08;;;;;;;14.30;7.30;;;;;;;0.61;69.78;100809.48;105586;1255;81309;-47
2024/01/22 05:15:36;;;;;;;17.00;9.80;;;;;;;0.65;69.61;100814.85;105442;1253;71246;-49
2024/01/22 05:18:05;;;;;;;15.20;8.20;;;;;;;0.68;69.61;100809.73;105417;1254;69853;-47
2024/01/22 05:20:33;;;;;;;45.00;23.00;;;;;;;0.70;69.47;100817.14;105566;1256;70078;-48
2024/01/22 05:23:01;;;;;;;127.50;61.40;;;;;;;0.73;69.48;100819.59;105446;1254;72831;-48
2024/01/22 05:25:29;;;;;;;86.80;45.50;;;;;;;0.75;69.48;100816.34;105509;1254;81268;-48
2024/01/22 05:27:58;;;;;;;37.70;20.30;;;;;;;0.76;69.53;100816.86;105470;1257;72889;-47
2024/01/22 05:30:26;;;;;;;31.80;18.90;;;;;;;0.78;69.59;100820.14;105535;1257;70015;-47
2024/01/22 05:32:54;;;;;;;32.20;17.50;;;;;;;0.82;69.51;100825.52;105537;1258;70005;-48
2024/01/22 05:35:22;;;;;;;9.70;6.10;;;;;;;0.87;69.52;100836.23;105682;1254;73401;-48
2024/01/22 05:37:51;;;;;;;8.10;5.20;;;;;;;0.90;69.52;100838.15;105470;1254;79984;-47
2024/01/22 05:40:19;;;;;;;11.10;5.20;;;;;;;0.95;69.61;100841.64;105506;1253;70242;-48
2024/01/22 05:42:47;;;;;;;8.90;4.60;;;;;;;0.97;69.50;100841.31;105496;1256;69987;-47
2024/01/22 05:45:15;;;;;;;8.10;4.20;;;;;;;0.99;69.32;100836.17;105523;1256;70036;-48
2024/01/22 05:47:45;;;;;;;8.50;4.30;;;;;;;1.04;69.12;100828.64;105593;1254;73080;-47
2024/01/22 05:50:14;;;;;;;8.00;4.20;;;;;;;1.09;69.18;100826.11;105582;1255;81873;-48
2024/01/22 05:52:42;;;;;;;6.40;3.80;;;;;;;1.13;69.02;100824.23;105581;1254;71663;-47
2024/01/22 05:55:10;;;;;;;8.20;4.90;;;;;;;1.15;69.13;100818.92;105580;1256;69952;-47
2024/01/22 05:57:38;;;;;;;9.90;4.20;;;;;;;1.15;69.29;100825.46;105521;1256;69983;-47
2024/01/22 06:00:13;;;;;;;7.50;3.80;;;;;;;1.14;69.26;100825.62;105571;1254;74433;-47
2024/01/22 06:02:42;;;;;;;6.20;3.80;;;;;;;1.14;69.37;100828.89;105602;1253;81954;-47
2024/01/22 06:05:10;;;;;;;11.80;6.60;;;;;;;1.10;69.93;100823.71;105600;1253;71635;-49
2024/01/22 06:07:39;;;;;;;15.60;8.20;;;;;;;1.08;69.78;100811.11;105612;1257;69893;-48
2024/01/22 06:10:08;;;;;;;9.50;5.70;;;;;;;1.07;69.67;100805.95;105625;1255;70044;-47
2024/01/22 06:12:37;;;;;;;11.60;6.30;;;;;;;1.06;69.77;100804.92;105634;1254;72795;-48
2024/01/22 06:15:06;;;;;;;11.90;6.90;;;;;;;1.01;70.32;100803.84;105564;1256;81470;-49
2024/01/22 06:17:34;;;;;;;21.60;10.40;;;;;;;0.95;70.46;100800.52;105665;1256;72986;-48
2024/01/22 06:20:04;;;;;;;20.70;10.30;;;;;;;0.90;70.68;100794.27;105536;1253;69095;-51
2024/01/22 06:22:33;;;;;;;26.40;11.50;;;;;;;0.84;70.86;100790.45;105672;1255;69979;-48
2024/01/22 06:25:03;;;;;;;10.30;5.30;;;;;;;0.79;71.03;100786.77;105669;1254;71453;-48
2024/01/22 06:27:32;;;;;;;8.30;3.80;;;;;;;0.77;70.84;100786.25;105591;1254;82754;-47
2024/01/22 06:30:01;;;;;;;13.20;5.70;;;;;;;0.79;70.91;100784.72;105635;1255;72610;-47
2024/01/22 06:32:30;;;;;;;9.10;4.70;;;;;;;0.80;71.19;100782.14;105566;1255;69964;-47
2024/01/22 06:34:59;;;;;;;10.40;4.80;;;;;;;0.81;71.21;100779.75;105553;1255;70006;-48
2024/01/22 06:37:27;;;;;;;9.70;5.30;;;;;;;0.80;71.47;100768.39;105550;1252;72872;-50
2024/01/22 06:39:58;;;;;;;25.90;10.10;;;;;;;0.79;71.44;100763.05;105555;1254;83529;-47
2024/01/22 06:42:29;;;;;;;21.40;11.40;;;;;;;0.77;71.60;100763.03;105584;1257;71212;-48
2024/01/22 06:45:07;;;;;;;15.30;7.30;;;;;;;0.73;71.57;100751.11;105544;1255;69933;-48
2024/01/22 06:47:37;;;;;;;9.80;4.90;;;;;;;0.71;71.28;100739.23;105597;1253;69999;-48
2024/01/22 06:50:06;;;;;;;7.00;3.70;;;;;;;0.75;71.37;100731.37;105578;1253;74172;-48
2024/01/22 06:52:36;;;;;;;10.60;4.60;;;;;;;0.82;71.33;100722.13;105644;1256;81579;-48
2024/01/22 06:55:05;;;;;;;8.00;3.70;;;;;;;0.87;71.15;100716.84;105598;1255;72042;-47
2024/01/22 06:57:34;;;;;;;6.90;3.90;;;;;;;0.94;71.17;100706.39;105632;1254;70047;-47
2024/01/22 07:00:07;;;;;;;8.20;4.70;;;;;;;0.99;71.08;100700.40;105591;1255;69999;-47
2024/01/22 07:02:39;;;;;;;7.40;3.70;;;;;;;1.04;71.03;100698.38;105599;1255;71634;-48
2024/01/22 07:05:08;;;;;;;8.00;3.80;;;;;;;1.08;70.93;100700.98;105618;1256;81345;-47
2024/01/22 07:07:40;;;;;;;7.10;3.60;;;;;;;1.11;70.92;100698.42;105580;1253;71489;-47
2024/01/22 07:10:10;;;;;;;8.80;4.40;;;;;;;1.15;70.78;100694.98;105652;1255;70375;-47
2024/01/22 07:12:41;;;;;;;9.30;5.10;;;;;;;1.17;70.82;100686.74;105713;1252;70426;-47
2024/01/22 07:15:12;;;;;;;7.60;4.20;;;;;;;1.20;70.92;100677.81;105684;1254;75098;-47
2024/01/22 07:17:42;;;;;;;10.60;4.50;;;;;;;1.23;70.87;100674.05;105619;1255;82162;-47
2024/01/22 07:20:14;;;;;;;10.00;4.60;;;;;;;1.26;70.80;100676.13;105658;1253;71702;-47
2024/01/22 07:22:45;;;;;;;6.60;3.90;;;;;;;1.31;70.73;100672.20;105482;1257;69978;-46
2024/01/22 07:25:16;;;;;;;6.10;3.70;;;;;;;1.36;70.76;100671.70;105482;1257;70028;-46
2024/01/22 07:27:45;;;;;;;10.20;3.80;;;;;;;1.44;71.00;100662.95;105555;1254;74553;-46
2024/01/22 07:30:14;;;;;;;8.10;4.60;;;;;;;1.53;71.03;100657.14;105627;1253;82229;-46
2024/01/22 07:32:44;;;;;;;6.80;3.50;;;;;;;1.63;71.28;100665.97;105635;1253;71986;-47
2024/01/22 07:35:13;;;;;;;8.40;4.00;;;;;;;1.73;71.11;100662.55;105639;1252;69916;-46
2024/01/22 07:37:46;;;;;;;10.30;3.80;;;;;;;1.83;70.96;100659.83;105635;1257;69871;-46
2024/01/22 07:40:15;;;;;;;7.80;4.00;;;;;;;1.93;71.14;100656.92;105555;1254;72415;-48
2024/01/22 07:42:44;;;;;;;9.10;4.00;;;;;;;2.01;71.03;100651.60;105571;1257;82834;-48
2024/01/22 07:45:13;;;;;;;8.60;4.60;;;;;;;2.09;70.90;100640.92;105536;1253;71304;-52
2024/01/22 07:47:44;;;;;;;9.40;3.80;;;;;;;2.17;70.83;100639.55;105558;1256;70048;-48
2024/01/22 07:50:14;;;;;;;17.00;6.00;;;;;;;2.25;70.77;100626.27;105469;1254;71418;-48
2024/01/22 07:52:43;;;;;;;27.70;12.30;;;;;;;2.34;71.08;100610.59;105555;1257;72794;-48
2024/01/22 07:55:17;;;;;;;77.40;30.20;;;;;;;2.43;70.92;100609.21;105898;1253;83605;-48
2024/01/22 07:57:46;;;;;;;64.60;24.70;;;;;;;2.51;71.16;100597.66;105549;1253;72012;-52
2024/01/22 08:00:16;;;;;;;169.90;63.10;;;;;;;2.57;70.94;100595.23;105760;1257;69980;-49
2024/01/22 08:02:44;;;;;;;52.00;20.70;;;;;;;2.65;70.76;100589.87;105584;1258;70002;-48
2024/01/22 08:05:13;;;;;;;159.70;59.00;;;;;;;2.73;70.85;100594.85;105625;1254;74203;-48
2024/01/22 08:07:43;;;;;;;137.50;50.60;;;;;;;2.82;71.12;100592.42;105535;1253;80348;-49
2024/01/22 08:10:13;;;;;;;25.00;11.20;;;;;;;2.88;70.89;100591.03;105575;1253;71305;-49
2024/01/22 08:12:42;;;;;;;24.20;8.30;;;;;;;2.96;71.02;100588.77;105731;1253;69857;-50
2024/01/22 08:15:15;;;;;;;29.60;12.00;;;;;;;3.02;70.68;100565.45;105662;1255;69909;-50
2024/01/22 08:17:46;;;;;;;52.50;23.80;;;;;;;3.08;70.62;100553.68;105670;1256;72291;-48
2024/01/22 08:20:17;;;;;;;64.50;24.30;;;;;;;3.15;70.65;100556.94;105667;1252;80698;-48
2024/01/22 08:22:47;;;;;;;19.40;7.30;;;;;;;3.21;70.61;100556.21;105559;1254;73308;-50
2024/01/22 08:25:19;;;;;;;19.20;7.20;;;;;;;3.28;70.52;100540.64;105768;1254;69847;-49
2024/01/22 08:27:48;;;;;;;34.00;13.20;;;;;;;3.33;70.49;100534.23;105682;1253;70246;-48
2024/01/22 08:30:17;;;;;;;22.00;11.20;;;;;;;3.36;70.29;100530.23;105580;1253;72878;-48
2024/01/22 08:32:46;;;;;;;33.50;15.10;;;;;;;3.41;70.28;100523.81;105564;1257;81628;-52
2024/01/22 08:35:16;;;;;;;20.70;7.20;;;;;;;3.45;70.19;100505.48;105591;1256;72973;-50
2024/01/22 08:37:50;;;;;;;21.10;6.30;;;;;;;3.47;70.09;100507.89;105633;1257;69908;-49
2024/01/22 08:40:22;;;;;;;13.70;5.10;;;;;;;3.50;70.18;100491.29;105669;1254;69865;-49
2024/01/22 08:42:53;;;;;;;11.20;4.90;;;;;;;3.53;70.14;100489.19;105670;1252;72891;-49
2024/01/22 08:45:22;;;;;;;9.30;4.60;;;;;;;3.57;70.03;100477.92;105631;1253;82920;-48
2024/01/22 08:47:51;;;;;;;8.70;4.30;;;;;;;3.60;69.98;100470.14;105602;1253;72056;-49
2024/01/22 08:50:22;;;;;;;9.70;4.40;;;;;;;3.63;69.96;100460.96;105559;1254;69961;-50
2024/01/22 08:52:54;;;;;;;14.70;8.70;;;;;;;3.64;69.84;100449.55;105480;1253;70250;-50
2024/01/22 08:55:23;;;;;;;9.50;5.50;;;;;;;3.65;70.00;100439.17;105744;1253;72863;-50
2024/01/22 08:57:53;;;;;;;12.40;6.60;;;;;;;3.62;69.79;100435.04;105596;1256;81411;-48
2024/01/22 09:00:23;;;;;;;9.90;4.70;;;;;;;3.60;69.84;100420.89;105482;1253;74137;-49
2024/01/22 09:02:52;;;;;;;9.40;4.30;;;;;;;3.60;69.76;100415.19;105577;1253;69979;-52
2024/01/22 09:05:21;;;;;;;7.90;4.40;;;;;;;3.59;69.89;100418.83;105509;1257;69992;-48
2024/01/22 09:07:49;;;;;;;7.00;4.20;;;;;;;3.60;70.01;100440.07;105737;1253;72894;-49
2024/01/22 09:10:18;;;;;;;5.90;3.40;;;;;;;3.61;70.08;100453.71;105542;1257;81733;-50
2024/01/22 09:12:48;;;;;;;8.40;3.70;;;;;;;3.63;70.15;100458.89;105712;1255;71063;-48
2024/01/22 09:15:20;;;;;;;6.90;3.20;;;;;;;3.67;70.05;100470.94;105577;1254;69907;-48
2024/01/22 09:17:49;;;;;;;8.30;3.40;;;;;;;3.74;70.06;100488.52;105527;1257;70063;-48
2024/01/22 09:20:17;;;;;;;5.20;3.20;;;;;;;3.82;70.02;100503.84;105622;1253;73077;-48
2024/01/22 09:22:46;;;;;;;8.40;4.10;;;;;;;3.90;69.99;100487.02;105588;1257;83145;-49
2024/01/22 09:25:14;;;;;;;7.30;3.70;;;;;;;3.98;69.80;100458.77;105608;1255;71028;-50
2024/01/22 09:27:42;;;;;;;6.40;3.40;;;;;;;4.07;69.52;100446.23;105577;1253;69090;-48
2024/01/22 09:30:11;;;;;;;6.70;3.40;;;;;;;4.14;69.18;100428.34;105552;1257;69961;-52
2024/01/22 09:32:40;;;;;;;7.00;3.70;;;;;;;4.20;68.83;100438.31;105655;1253;73458;-48
2024/01/22 09:35:09;;;;;;;5.80;3.10;;;;;;;4.28;68.66;100451.39;105711;1255;83161;-53
2024/01/22 09:37:37;;;;;;;5.50;2.70;;;;;;;4.36;68.29;100448.35;105533;1257;72323;-51
2024/01/22 09:40:11;;;;;;;8.50;3.10;;;;;;;4.44;68.01;100455.17;105581;1253;69892;-48
2024/01/22 09:42:50;;;;;;;8.70;3.50;;;;;;;4.52;67.78;100468.41;105684;1255;69949;-49
2024/01/22 09:45:19;;;;;;;8.10;3.40;;;;;;;4.60;67.58;100465.39;105640;1255;72194;-48
2024/01/22 09:47:48;;;;;;;6.90;3.30;;;;;;;4.65;67.29;100455.63;105688;1257;81625;-48
2024/01/22 09:50:17;;;;;;;9.50;3.50;;;;;;;4.69;67.05;100450.91;105728;1253;72910;-49
2024/01/22 09:52:47;;;;;;;6.30;3.10;;;;;;;4.73;66.76;100441.52;105615;1253;69948;-48
2024/01/22 09:55:15;;;;;;;9.00;3.50;;;;;;;4.74;66.56;100436.14;105622;1253;70034;-47
2024/01/22 09:57:45;;;;;;;8.80;3.80;;;;;;;4.75;66.30;100431.10;105721;1253;73470;-48
2024/01/22 10:00:16;;;;;;;7.90;3.80;;;;;;;4.75;66.19;100429.38;105669;1253;83666;-48
2024/01/22 10:02:44;;;;;;;7.10;3.50;;;;;;;4.73;65.99;100420.39;105591;1253;70969;-49
2024/01/22 10:05:12;;;;;;;7.40;4.10;;;;;;;4.69;65.87;100418.71;105639;1257;70028;-50
2024/01/22 10:07:41;;;;;;;10.00;4.50;;;;;;;4.68;65.69;100426.35;105536;1255;70002;-49
2024/01/22 10:10:09;;;;;;;7.90;4.60;;;;;;;4.68;65.47;100430.67;105653;1253;73904;-49
2024/01/22 10:12:59;;;;;;;9.50;4.60;;;;;;;4.69;65.40;100428.25;105528;1255;81280;-50
2024/01/22 10:15:28;;;;;;;;;;;;;;;4.68;65.13;100413.02;105604;1253;70195;-49
2024/01/22 10:18:11;;;;;;;8.20;4.00;;;;;;;4.68;65.07;100410.77;105638;1254;69884;-52
2024/01/22 10:20:41;;;;;;;8.40;4.50;;;;;;;4.69;64.92;100408.34;105554;1255;69851;-55
2024/01/22 10:23:11;;;;;;;36.80;16.20;;;;;;;4.70;64.78;100407.11;105602;1253;74459;-49
2024/01/22 10:25:40;;;;;;;86.80;36.00;;;;;;;4.71;64.83;100407.79;105617;1256;81522;-49
2024/01/22 10:28:19;;;;;;;30.70;14.70;;;;;;;4.72;64.76;100405.88;105565;1253;72060;-49
2024/01/22 10:31:02;;;;;;;34.80;15.00;;;;;;;4.74;64.63;100400.30;105547;1255;70587;-48
2024/01/22 10:33:31;;;;;;;29.10;12.10;;;;;;;4.78;64.49;100393.67;105583;1253;69967;-49
2024/01/22 10:36:14;;;;;;;160.80;50.20;;;;;;;4.82;64.44;100392.42;105570;1252;74817;-48
2024/01/22 10:38:47;;;;;;;158.80;51.30;;;;;;;4.85;64.24;100389.78;105617;1252;82250;-47
2024/01/22 10:41:19;;;;;;;37.10;14.10;;;;;;;4.87;64.07;100398.91;105595;1253;71859;-47
2024/01/22 10:43:52;;;;;;;47.20;16.40;;;;;;;4.90;63.95;100394.55;105571;1253;69990;-48
2024/01/22 10:46:21;;;;;;;20.10;8.90;;;;;;;4.90;63.84;100398.03;105618;1252;69996;-47
2024/01/22 10:48:50;;;;;;;8.80;5.30;;;;;;;4.89;63.92;100393.69;105597;1253;73091;-47
2024/01/22 10:51:21;;;;;;;9.80;5.20;;;;;;;4.89;63.81;100395.60;105561;1253;81092;-46
2024/01/22 10:53:49;;;;;;;9.30;5.90;;;;;;;4.88;63.74;100395.10;105435;1253;175512;-47
2024/01/22 10:56:24;;;;;;;10.50;5.50;;;;;;;4.85;63.82;100400.68;105644;1254;69917;-47
2024/01/22 10:59:01;;;;;;;13.80;7.00;;;;;;;4.82;63.62;100395.52;105554;1252;69850;-46
2024/01/22 11:01:33;;;;;;;24.20;12.20;;;;;;;4.80;63.70;100389.85;105505;1253;73516;-46
2024/01/22 11:04:01;;;;;;;11.10;6.00;;;;;;;4.79;63.92;100389.17;105527;1253;83166;-47
2024/01/22 11:06:32;;;;;;;9.30;5.30;;;;;;;4.77;63.69;100392.66;105604;1253;71088;-48
2024/01/22 11:09:04;;;;;;;11.30;5.50;;;;;;;4.77;63.74;100379.85;105642;1253;69816;-47
2024/01/22 11:11:35;;;;;;;9.10;5.00;;;;;;;4.79;63.80;100377.05;105670;1253;70006;-48
2024/01/22 11:14:03;;;;;;;9.50;5.40;;;;;;;4.81;63.91;100370.78;105637;1253;73295;-48
2024/01/22 11:16:32;;;;;;;13.50;8.00;;;;;;;4.82;64.10;100357.95;105630;1256;81197;-49
2024/01/22 11:19:02;;;;;;;17.40;8.90;;;;;;;4.82;64.19;100352.76;105560;1253;72223;-49
2024/01/22 11:21:33;;;;;;;65.50;25.20;;;;;;;4.84;64.47;100348.59;105585;1253;69981;-49
2024/01/22 11:24:19;;;;;;;41.30;12.70;;;;;;;4.81;64.82;100335.46;105617;1255;70005;-48
2024/01/22 11:26:54;;;;;;;24.80;10.40;;;;;;;4.73;64.95;100326.58;105598;1253;74101;-48
2024/01/22 11:29:23;;;;;;;28.80;11.10;;;;;;;4.59;64.93;100317.09;105600;1255;81917;-48